createdAt,value
2023-04-04T00:02:25.824Z,101116.03
2023-04-04T00:04:53.961Z,101112.59
2023-04-04T00:07:21.635Z,101108.28
2023-04-04T00:09:49.112Z,101107.22
2023-04-04T00:12:17.486Z,101097.72
2023-04-04T00:14:45.001Z,101097.78
2023-04-04T00:17:12.521Z,101112.38
2023-04-04T00:19:41.409Z,101108.06
2023-04-04T00:22:09.401Z,101102.94
2023-04-04T00:24:37.533Z,101109.13
2023-04-04T00:27:05.148Z,101109.88
2023-04-04T00:29:34.267Z,101112.50
2023-04-04T00:32:03.246Z,101112.56
2023-04-04T00:34:31.004Z,101108.31
2023-04-04T00:36:59.781Z,101111.66
2023-04-04T00:39:27.514Z,101109.81
2023-04-04T00:41:55.312Z,101111.38
2023-04-04T00:44:22.844Z,101108.66
2023-04-04T00:46:50.332Z,101108.66
2023-04-04T00:49:18.334Z,101106.41
2023-04-04T00:51:46.057Z,101108.72
2023-04-04T00:54:14.922Z,101105.16
2023-04-04T00:56:42.636Z,101109.59
2023-04-04T00:59:10.276Z,101112.19
2023-04-04T01:01:38.125Z,101115.63
2023-04-04T01:04:06.102Z,101111.19
2023-04-04T01:06:33.886Z,101110.47
2023-04-04T01:09:01.466Z,101108.53
2023-04-04T01:11:30.323Z,101115.47
2023-04-04T01:13:57.781Z,101105.59
2023-04-04T01:16:25.622Z,101104.56
2023-04-04T01:18:55.554Z,101102.94
2023-04-04T01:21:24.900Z,101098.59
2023-04-04T01:24:01.126Z,101103.13
2023-04-04T01:26:30.101Z,101103.28
2023-04-04T01:28:58.616Z,101100.03
2023-04-04T01:31:30.595Z,101105.25
2023-04-04T01:34:05.824Z,101092.91
2023-04-04T01:36:38.978Z,101093.63
2023-04-04T01:39:15.407Z,101091.84
2023-04-04T01:41:46.625Z,101090.22
2023-04-04T01:44:15.824Z,101088.13
2023-04-04T01:46:43.325Z,101085.56
2023-04-04T01:49:11.332Z,101085.44
2023-04-04T01:51:40.328Z,101082.94
2023-04-04T01:54:08.031Z,101078.50
2023-04-04T01:56:35.590Z,101084.84
2023-04-04T01:59:04.486Z,101070.59
2023-04-04T02:01:33.220Z,101076.66
2023-04-04T02:04:00.884Z,101077.13
2023-04-04T02:06:28.435Z,101076.19
2023-04-04T02:08:56.055Z,101077.97
2023-04-04T02:11:23.834Z,101083.94
2023-04-04T02:13:51.416Z,101077.81
2023-04-04T02:16:20.241Z,101078.66
2023-04-04T02:18:47.917Z,101076.38
2023-04-04T02:21:15.681Z,101079.16
2023-04-04T02:23:43.149Z,101073.28
2023-04-04T02:26:10.688Z,101077.19
2023-04-04T02:28:38.174Z,101087.41
2023-04-04T02:31:05.984Z,101087.38
2023-04-04T02:33:34.891Z,101068.84
2023-04-04T02:36:02.445Z,101071.19
2023-04-04T02:38:29.939Z,101085.13
2023-04-04T02:40:57.405Z,101083.38
2023-04-04T02:43:25.029Z,101072.53
2023-04-04T02:45:52.447Z,101074.22
2023-04-04T02:48:19.943Z,101079.25
2023-04-04T02:50:48.751Z,101072.41
2023-04-04T02:53:16.649Z,101076.13
2023-04-04T02:55:44.086Z,101075.19
2023-04-04T02:58:11.551Z,101069.34
2023-04-04T03:00:39.233Z,101060.66
2023-04-04T03:03:07.412Z,101061.41
2023-04-04T03:05:35.124Z,101063.38
2023-04-04T03:08:04.752Z,101067.88
2023-04-04T03:10:32.341Z,101060.19
2023-04-04T03:13:00.389Z,101062.75
2023-04-04T03:15:27.901Z,101061.78
2023-04-04T03:17:55.827Z,101059.06
2023-04-04T03:20:23.417Z,101057.31
2023-04-04T03:22:50.821Z,101066.09
2023-04-04T03:25:19.613Z,101062.56
2023-04-04T03:27:47.131Z,101069.22
2023-04-04T03:30:14.734Z,101071.97
2023-04-04T03:32:42.255Z,101070.44
2023-04-04T03:35:10.410Z,101064.22
2023-04-04T03:37:37.862Z,101057.47
2023-04-04T03:40:06.120Z,101053.81
2023-04-04T03:42:35.768Z,101051.19
2023-04-04T03:45:03.708Z,101052.09
2023-04-04T03:47:31.173Z,101044.84
2023-04-04T03:49:58.618Z,101041.44
2023-04-04T03:52:26.059Z,101042.13
2023-04-04T03:54:53.475Z,101045.56
2023-04-04T03:57:21.026Z,101050.66
2023-04-04T03:59:49.792Z,101047.91
2023-04-04T04:02:17.277Z,101048.22
2023-04-04T04:04:44.765Z,101048.38
2023-04-04T04:07:12.261Z,101046.63
2023-04-04T04:09:39.761Z,101041.63
2023-04-04T04:12:07.886Z,101045.09
2023-04-04T04:14:35.300Z,101046.88
2023-04-04T04:17:04.088Z,101043.03
2023-04-04T04:19:31.712Z,101038.25
2023-04-04T04:21:59.156Z,101034.28
2023-04-04T04:24:26.653Z,101045.19
2023-04-04T04:26:54.131Z,101039.94
2023-04-04T04:29:21.564Z,101045.31
2023-04-04T04:31:49.137Z,101048.19
2023-04-04T04:34:17.913Z,101045.66
2023-04-04T04:36:45.462Z,101039.34
2023-04-04T04:39:12.868Z,101048.47
2023-04-04T04:41:40.295Z,101027.22
2023-04-04T04:44:07.722Z,101036.91
2023-04-04T04:46:35.198Z,101032.25
2023-04-04T04:49:02.725Z,101036.84
2023-04-04T04:51:31.644Z,101034.16
2023-04-04T04:53:59.221Z,101036.16
2023-04-04T04:56:26.645Z,101039.69
2023-04-04T04:58:54.119Z,101033.16
2023-04-04T05:01:21.627Z,101049.38
2023-04-04T05:03:50.712Z,101043.50
2023-04-04T05:06:19.502Z,101041.13
2023-04-04T05:08:48.311Z,101048.03
2023-04-04T05:11:15.745Z,101034.44
2023-04-04T05:13:43.150Z,101042.97
2023-04-04T05:16:10.647Z,101045.88
2023-04-04T05:18:38.083Z,101051.13
2023-04-04T05:21:05.946Z,101053.69
2023-04-04T05:23:33.363Z,101043.22
2023-04-04T05:26:03.066Z,101052.31
2023-04-04T05:28:30.487Z,101046.22
2023-04-04T05:30:58.629Z,101051.47
2023-04-04T05:33:26.110Z,101058.50
2023-04-04T05:35:53.573Z,101049.03
2023-04-04T05:38:21.210Z,101050.09
2023-04-04T05:40:48.679Z,101060.50
2023-04-04T05:43:17.766Z,101060.78
2023-04-04T05:45:45.323Z,101061.91
2023-04-04T05:48:12.802Z,101060.09
2023-04-04T05:50:40.382Z,101060.19
2023-04-04T05:53:07.999Z,101065.41
2023-04-04T05:55:35.458Z,101060.78
2023-04-04T05:58:03.272Z,101068.00
2023-04-04T06:00:32.179Z,101063.16
2023-04-04T06:02:59.688Z,101073.75
2023-04-04T06:05:27.243Z,101070.19
2023-04-04T06:07:54.763Z,101073.94
2023-04-04T06:10:22.296Z,101072.53
2023-04-04T06:12:49.744Z,101080.44
2023-04-04T06:15:17.322Z,101078.81
2023-04-04T06:17:46.215Z,101080.78
2023-04-04T06:20:13.713Z,101083.69
2023-04-04T06:22:41.380Z,101091.44
2023-04-04T06:25:10.270Z,101095.31
2023-04-04T06:27:37.785Z,101095.22
2023-04-04T06:30:06.034Z,101102.09
2023-04-04T06:32:33.765Z,101104.91
2023-04-04T06:35:02.936Z,101112.75
2023-04-04T06:37:30.387Z,101112.84
2023-04-04T06:39:58.188Z,101122.44
2023-04-04T06:42:25.779Z,101117.38
2023-04-04T06:44:53.250Z,101115.84
2023-04-04T06:47:21.259Z,101121.34
2023-04-04T06:49:48.735Z,101110.03
2023-04-04T06:52:17.505Z,101117.06
2023-04-04T06:54:45.795Z,101118.81
2023-04-04T06:57:13.234Z,101114.50
2023-04-04T06:59:41.961Z,101113.63
2023-04-04T07:02:10.434Z,101116.44
2023-04-04T07:04:39.641Z,101115.75
2023-04-04T07:07:07.346Z,101117.72
2023-04-04T07:09:36.300Z,101116.88
2023-04-04T07:12:03.832Z,101111.66
2023-04-04T07:14:31.399Z,101112.72
2023-04-04T07:16:58.864Z,101111.84
2023-04-04T07:19:28.697Z,101106.59
2023-04-04T07:21:56.697Z,101107.84
2023-04-04T07:24:24.223Z,101111.28
2023-04-04T07:26:53.054Z,101108.81
2023-04-04T07:29:21.308Z,101120.38
2023-04-04T07:31:48.799Z,101113.31
2023-04-04T07:34:16.469Z,101115.19
2023-04-04T07:36:44.315Z,101118.00
2023-04-04T07:39:11.873Z,101120.72
2023-04-04T07:41:39.306Z,101120.63
2023-04-04T07:44:08.319Z,101115.47
2023-04-04T07:46:36.001Z,101116.38
2023-04-04T07:49:03.606Z,101105.91
2023-04-04T07:51:31.697Z,101107.69
2023-04-04T07:53:59.510Z,101101.59
2023-04-04T07:56:27.055Z,101095.44
2023-04-04T07:58:54.557Z,101098.94
2023-04-04T08:01:23.392Z,101099.84
2023-04-04T08:03:53.211Z,101103.41
2023-04-04T08:06:20.841Z,101099.00
2023-04-04T08:08:48.346Z,101099.88
2023-04-04T08:11:15.888Z,101094.56
2023-04-04T08:13:43.541Z,101088.44
2023-04-04T08:16:11.433Z,101087.53
2023-04-04T08:18:40.537Z,101092.72
2023-04-04T08:21:08.199Z,101088.31
2023-04-04T08:23:35.898Z,101088.19
2023-04-04T08:26:03.453Z,101085.56
2023-04-04T08:28:31.303Z,101080.28
2023-04-04T08:30:58.817Z,101083.69
2023-04-04T08:33:37.207Z,101097.84
2023-04-04T08:36:13.253Z,101091.56
2023-04-04T08:38:40.749Z,101087.19
2023-04-04T08:41:09.508Z,101083.63
2023-04-04T08:43:41.185Z,101087.09
2023-04-04T08:46:11.538Z,101078.22
2023-04-04T08:48:40.432Z,101080.81
2023-04-04T08:51:09.244Z,101083.72
2023-04-04T08:53:39.780Z,101079.09
2023-04-04T08:56:07.613Z,101090.44
2023-04-04T08:58:35.068Z,101088.47
2023-04-04T09:01:02.605Z,101093.81
2023-04-04T09:03:33.075Z,101091.94
2023-04-04T09:06:02.083Z,101091.19
2023-04-04T09:08:29.847Z,101094.66
2023-04-04T09:10:59.046Z,101092.88
2023-04-04T09:13:26.520Z,101089.44
2023-04-04T09:15:55.948Z,101086.69
2023-04-04T09:18:23.470Z,101081.13
2023-04-04T09:20:51.263Z,101080.22
2023-04-04T09:23:20.323Z,101082.72
2023-04-04T09:28:22.070Z,101075.13
2023-04-04T09:30:50.245Z,101065.38
2023-04-04T09:33:18.968Z,101073.91
2023-04-04T09:35:53.221Z,101073.03
2023-04-04T09:38:22.880Z,101067.78
2023-04-04T09:40:52.482Z,101063.47
2023-04-04T09:43:23.041Z,101064.78
2023-04-04T09:45:51.599Z,101058.81
2023-04-04T09:48:27.163Z,101066.50
2023-04-04T09:50:54.652Z,101062.78
2023-04-04T09:53:22.120Z,101067.91
2023-04-04T09:55:54.689Z,101058.94
2023-04-04T09:58:28.127Z,101056.22
2023-04-04T10:00:57.699Z,101050.72
2023-04-04T10:03:25.636Z,101053.03
2023-04-04T10:05:59.820Z,101067.75
2023-04-04T10:08:29.099Z,101056.97
2023-04-04T10:11:09.646Z,101059.31
2023-04-04T10:13:42.145Z,101048.78
2023-04-04T10:16:10.485Z,101038.16
2023-04-04T10:18:38.405Z,101048.97
2023-04-04T10:23:40.329Z,101036.03
2023-04-04T10:26:08.103Z,101025.91
2023-04-04T10:28:35.625Z,101030.09
2023-04-04T10:31:10.758Z,101032.50
2023-04-04T10:33:51.247Z,101026.84
2023-04-04T10:36:23.649Z,101023.16
2023-04-04T10:38:59.916Z,101027.50
2023-04-04T10:41:30.473Z,101017.78
2023-04-04T10:44:09.444Z,101023.91
2023-04-04T10:46:42.957Z,101011.72
2023-04-04T10:49:11.554Z,101007.50
2023-04-04T10:51:48.738Z,101009.53
2023-04-04T10:54:21.339Z,100998.72
2023-04-04T10:56:49.925Z,101006.72
2023-04-04T10:59:18.066Z,101004.09
2023-04-04T11:01:58.626Z,101012.78
2023-04-04T11:04:34.072Z,101001.84
2023-04-04T11:07:11.510Z,100990.69
2023-04-04T11:09:53.619Z,100991.22
2023-04-04T11:12:33.572Z,100991.66
2023-04-04T11:15:11.475Z,100989.44
2023-04-04T11:17:59.774Z,100997.84
2023-04-04T11:20:33.245Z,100990.63
2023-04-04T11:23:08.864Z,100983.66
2023-04-04T11:25:41.694Z,100975.00
2023-04-04T11:28:15.738Z,100974.03
2023-04-04T11:30:48.478Z,100972.53
2023-04-04T11:33:28.198Z,100977.09
2023-04-04T11:36:01.060Z,100979.31
2023-04-04T11:38:30.241Z,100978.00
2023-04-04T11:40:58.433Z,100978.19
2023-04-04T11:43:28.513Z,100970.50
2023-04-04T11:46:07.956Z,100960.88
2023-04-04T11:48:37.982Z,100971.28
2023-04-04T11:51:07.048Z,100966.50
2023-04-04T11:53:34.550Z,100959.72
2023-04-04T11:56:02.191Z,100967.38
2023-04-04T11:58:29.701Z,100963.22
2023-04-04T12:00:57.867Z,100962.97
2023-04-04T12:03:25.556Z,100968.34
2023-04-04T12:05:54.548Z,100977.28
2023-04-04T12:08:23.878Z,100963.19
2023-04-04T12:10:52.910Z,100961.63
2023-04-04T12:13:20.497Z,100950.00
2023-04-04T12:15:49.271Z,100958.34
2023-04-04T12:18:22.833Z,100947.00
2023-04-04T12:20:52.697Z,100953.09
2023-04-04T12:23:23.400Z,100943.63
2023-04-04T12:25:54.588Z,100931.94
2023-04-04T12:28:22.578Z,100927.16
2023-04-04T12:30:51.255Z,100919.88
2023-04-04T12:33:18.825Z,100927.19
2023-04-04T12:35:52.835Z,100925.09
2023-04-04T12:38:21.751Z,100925.31
2023-04-04T12:40:52.217Z,100906.91
2023-04-04T12:43:20.925Z,100901.91
2023-04-04T12:45:51.514Z,100898.69
2023-04-04T12:48:19.693Z,100897.88
2023-04-04T12:50:54.613Z,100884.97
2023-04-04T12:55:56.548Z,100887.16
2023-04-04T12:58:25.918Z,100879.09
2023-04-04T13:00:55.331Z,100889.44
2023-04-04T13:03:24.501Z,100878.84
2023-04-04T13:05:53.035Z,100875.81
2023-04-04T13:08:20.928Z,100873.69
2023-04-04T13:11:04.520Z,100864.81
2023-04-04T13:13:33.779Z,100864.66
2023-04-04T13:16:01.402Z,100860.28
2023-04-04T13:18:34.023Z,100856.88
2023-04-04T13:21:01.451Z,100854.53
2023-04-04T13:23:28.971Z,100848.28
2023-04-04T13:25:58.321Z,100850.88
2023-04-04T13:28:27.558Z,100856.41
2023-04-04T13:30:55.124Z,100845.56
2023-04-04T13:33:23.122Z,100839.94
2023-04-04T13:35:51.221Z,100831.03
2023-04-04T13:38:18.857Z,100828.41
2023-04-04T13:40:46.760Z,100834.47
2023-04-04T13:43:15.071Z,100839.44
2023-04-04T13:45:44.587Z,100830.81
2023-04-04T13:48:12.967Z,100817.41
2023-04-04T13:50:43.616Z,100826.63
2023-04-04T13:53:11.302Z,100816.31
2023-04-04T13:55:43.960Z,100816.38
2023-04-04T13:58:20.555Z,100812.78
2023-04-04T14:00:50.541Z,100811.41
2023-04-04T14:03:18.380Z,100804.22
2023-04-04T14:05:46.241Z,100802.00
2023-04-04T14:08:14.489Z,100801.16
2023-04-04T14:10:42.096Z,100797.06
2023-04-04T14:13:09.583Z,100788.28
2023-04-04T14:15:37.100Z,100784.59
2023-04-04T14:18:06.181Z,100791.13
2023-04-04T14:20:35.094Z,100790.56
2023-04-04T14:23:02.727Z,100790.41
2023-04-04T14:25:30.505Z,100787.69
2023-04-04T14:27:57.971Z,100790.41
2023-04-04T14:30:25.585Z,100779.66
2023-04-04T14:32:54.083Z,100784.94
2023-04-04T14:35:22.998Z,100777.91
2023-04-04T14:37:50.495Z,100783.38
2023-04-04T14:40:18.118Z,100764.19
2023-04-04T14:42:45.588Z,100770.66
2023-04-04T14:45:13.454Z,100765.56
2023-04-04T14:47:41.284Z,100758.69
2023-04-04T14:50:09.819Z,100767.00
2023-04-04T14:52:38.716Z,100760.13
2023-04-04T14:55:08.814Z,100760.69
2023-04-04T14:57:46.901Z,100758.88
2023-04-04T15:00:24.788Z,100757.22
2023-04-04T15:02:52.399Z,100765.63
2023-04-04T15:05:20.467Z,100755.97
2023-04-04T15:07:50.894Z,100748.78
2023-04-04T15:10:18.423Z,100750.34
2023-04-04T15:12:45.900Z,100742.41
2023-04-04T15:15:13.973Z,100747.22
2023-04-04T15:17:41.849Z,100740.56
2023-04-04T15:20:10.309Z,100736.81
2023-04-04T15:22:38.490Z,100741.13
2023-04-04T15:25:09.065Z,100736.22
2023-04-04T15:27:36.570Z,100737.53
2023-04-04T15:30:04.372Z,100739.50
2023-04-04T15:32:31.873Z,100734.44
2023-04-04T15:34:59.369Z,100730.63
2023-04-04T15:37:27.002Z,100728.34
2023-04-04T15:39:54.740Z,100724.78
2023-04-04T15:42:25.291Z,100721.50
2023-04-04T15:44:57.762Z,100722.28
2023-04-04T15:47:25.390Z,100716.88
2023-04-04T15:49:52.930Z,100727.03
2023-04-04T15:52:20.451Z,100724.06
2023-04-04T15:54:48.003Z,100712.78
2023-04-04T15:57:15.565Z,100714.03
2023-04-04T15:59:44.436Z,100720.88
2023-04-04T16:02:11.949Z,100718.41
2023-04-04T16:04:39.620Z,100709.25
2023-04-04T16:07:07.089Z,100708.34
2023-04-04T16:09:34.615Z,100706.81
2023-04-04T16:12:02.943Z,100711.84
2023-04-04T16:14:30.488Z,100710.31
2023-04-04T16:17:02.844Z,100705.78
2023-04-04T16:19:30.538Z,100711.22
2023-04-04T16:21:58.940Z,100710.47
2023-04-04T16:24:26.567Z,100704.84
2023-04-04T16:26:54.046Z,100706.25
2023-04-04T16:29:21.556Z,100701.78
2023-04-04T16:31:49.377Z,100697.69
2023-04-04T16:34:18.596Z,100700.38
2023-04-04T16:36:46.221Z,100697.47
2023-04-04T16:39:13.765Z,100691.50
2023-04-04T16:41:41.575Z,100691.81
2023-04-04T16:44:09.090Z,100694.59
2023-04-04T16:46:36.851Z,100683.75
2023-04-04T16:49:04.561Z,100687.50
2023-04-04T16:51:33.368Z,100683.69
2023-04-04T16:54:00.847Z,100681.63
2023-04-04T16:56:28.278Z,100682.00
2023-04-04T16:58:55.718Z,100683.78
2023-04-04T17:01:23.360Z,100679.47
2023-04-04T17:03:50.964Z,100683.34
2023-04-04T17:06:18.461Z,100677.34
2023-04-04T17:08:48.992Z,100678.03
2023-04-04T17:11:16.785Z,100678.81
2023-04-04T17:13:44.245Z,100671.97
2023-04-04T17:16:12.075Z,100674.53
2023-04-04T17:18:39.602Z,100675.91
2023-04-04T17:21:07.387Z,100678.66
2023-04-04T17:23:34.880Z,100667.84
2023-04-04T17:26:03.952Z,100672.66
2023-04-04T17:28:31.794Z,100671.94
2023-04-04T17:30:59.658Z,100671.78
2023-04-04T17:33:27.784Z,100674.47
2023-04-04T17:35:55.376Z,100672.56
2023-04-04T17:38:22.881Z,100674.00
2023-04-04T17:40:50.502Z,100672.31
2023-04-04T17:43:19.432Z,100670.31
2023-04-04T17:45:47.008Z,100666.97
2023-04-04T17:48:14.510Z,100669.31
2023-04-04T17:50:42.928Z,100665.66
2023-04-04T17:53:10.855Z,100669.94
2023-04-04T17:55:39.739Z,100657.41
2023-04-04T17:58:07.896Z,100663.59
2023-04-04T18:00:36.871Z,100664.53
2023-04-04T18:03:04.653Z,100660.03
2023-04-04T18:05:33.963Z,100665.84
2023-04-04T18:08:04.659Z,100664.75
2023-04-04T18:10:32.259Z,100671.97
2023-04-04T18:12:59.748Z,100671.44
2023-04-04T18:15:27.344Z,100673.78
2023-04-04T18:17:56.301Z,100674.47
2023-04-04T18:20:33.917Z,100680.41
2023-04-04T18:23:03.069Z,100669.84
2023-04-04T18:25:30.927Z,100669.25
2023-04-04T18:27:58.401Z,100667.66
2023-04-04T18:30:26.751Z,100669.75
2023-04-04T18:32:56.588Z,100670.75
2023-04-04T18:35:24.143Z,100679.28
2023-04-04T18:37:51.637Z,100670.56
2023-04-04T18:40:19.437Z,100675.38
2023-04-04T18:42:47.039Z,100669.81
2023-04-04T18:45:16.280Z,100676.25
2023-04-04T18:47:43.938Z,100659.97
2023-04-04T18:50:13.222Z,100659.97
2023-04-04T18:52:40.760Z,100666.56
2023-04-04T18:55:09.230Z,100667.47
2023-04-04T18:57:37.474Z,100668.97
2023-04-04T19:00:06.889Z,100672.47
2023-04-04T19:02:36.468Z,100669.03
2023-04-04T19:05:04.974Z,100670.88
2023-04-04T19:07:34.747Z,100676.75
2023-04-04T19:10:05.691Z,100681.19
2023-04-04T19:12:34.908Z,100677.16
2023-04-04T19:15:02.458Z,100679.34
2023-04-04T19:17:30.388Z,100676.69
2023-04-04T19:19:58.128Z,100684.44
2023-04-04T19:22:25.643Z,100680.78
2023-04-04T19:24:54.798Z,100676.56
2023-04-04T19:27:22.261Z,100682.25
2023-04-04T19:29:49.728Z,100680.88
2023-04-04T19:32:19.534Z,100687.25
2023-04-04T19:34:47.742Z,100686.63
2023-04-04T19:37:17.451Z,100689.03
2023-04-04T19:39:45.047Z,100694.34
2023-04-04T19:42:14.287Z,100688.91
2023-04-04T19:44:42.283Z,100685.53
2023-04-04T19:47:11.588Z,100691.13
2023-04-04T19:49:39.576Z,100685.63
2023-04-04T19:52:08.518Z,100685.88
2023-04-04T19:54:41.612Z,100693.16
2023-04-04T19:57:20.390Z,100692.66
2023-04-04T20:00:04.874Z,100693.66
2023-04-04T20:02:52.592Z,100693.94
2023-04-04T20:05:58.146Z,100690.50
2023-04-04T20:08:31.594Z,100693.63
2023-04-04T20:10:59.376Z,100692.91
2023-04-04T20:13:28.209Z,100693.09
2023-04-04T20:16:01.135Z,100694.31
2023-04-04T20:18:30.217Z,100682.16
2023-04-04T20:21:03.116Z,100687.66
2023-04-04T20:23:32.585Z,100688.38
2023-04-04T20:26:06.830Z,100684.13
2023-04-04T20:28:36.619Z,100683.28
2023-04-04T20:31:10.786Z,100682.09
2023-04-04T20:33:41.542Z,100685.41
2023-04-04T20:36:11.668Z,100680.97
2023-04-04T20:38:41.022Z,100687.00
2023-04-04T20:41:17.256Z,100681.25
2023-04-04T20:43:53.523Z,100684.25
2023-04-04T20:46:22.731Z,100682.75
2023-04-04T20:48:51.283Z,100684.63
2023-04-04T20:51:30.802Z,100682.94
2023-04-04T20:53:59.885Z,100678.56
2023-04-04T20:56:52.136Z,100682.03
2023-04-04T20:59:32.419Z,100686.47
2023-04-04T21:02:08.573Z,100689.13
2023-04-04T21:04:36.569Z,100686.47
2023-04-04T21:07:06.277Z,100679.34
2023-04-04T21:09:33.815Z,100684.69
2023-04-04T21:12:01.672Z,100685.63
2023-04-04T21:14:38.970Z,100689.25
2023-04-04T21:17:07.534Z,100686.78
2023-04-04T21:19:35.039Z,100683.28
2023-04-04T21:22:02.575Z,100686.88
2023-04-04T21:24:34.972Z,100678.97
2023-04-04T21:27:04.445Z,100681.63
2023-04-04T21:29:33.244Z,100674.69
2023-04-04T21:32:02.647Z,100677.38
2023-04-04T21:34:30.885Z,100680.13
2023-04-04T21:37:01.963Z,100673.09
2023-04-04T21:39:31.439Z,100677.47
2023-04-04T21:42:01.369Z,100679.16
2023-04-04T21:44:29.380Z,100678.34
2023-04-04T21:46:58.545Z,100674.00
2023-04-04T21:49:26.704Z,100675.84
2023-04-04T21:51:54.190Z,100676.75
2023-04-04T21:54:21.621Z,100671.44
2023-04-04T21:56:49.085Z,100663.63
2023-04-04T21:59:16.638Z,100662.75
2023-04-04T22:01:44.221Z,100659.19
2023-04-04T22:04:13.130Z,100660.13
2023-04-04T22:06:40.665Z,100655.75
2023-04-04T22:09:08.137Z,100660.13
2023-04-04T22:11:38.629Z,100656.56
2023-04-04T22:14:07.005Z,100657.50
2023-04-04T22:16:38.956Z,100654.84
2023-04-04T22:19:07.478Z,100658.25
2023-04-04T22:21:37.468Z,100654.78
2023-04-04T22:24:06.257Z,100647.88
2023-04-04T22:26:34.092Z,100648.75
2023-04-04T22:29:03.392Z,100643.50
2023-04-04T22:31:31.571Z,100641.75
2023-04-04T22:33:59.091Z,100642.66
2023-04-04T22:36:26.565Z,100639.97
2023-04-04T22:38:59.243Z,100642.69
2023-04-04T22:41:28.603Z,100637.41
2023-04-04T22:43:56.788Z,100634.81
2023-04-04T22:46:25.229Z,100637.44
2023-04-04T22:49:04.834Z,100640.06
2023-04-04T22:51:44.693Z,100634.84
2023-04-04T22:54:15.456Z,100632.22
2023-04-04T22:56:43.285Z,100629.59
2023-04-04T22:59:11.056Z,100633.06
2023-04-04T23:01:41.287Z,100638.34
2023-04-04T23:04:09.020Z,100637.47
2023-04-04T23:06:38.175Z,100633.94
2023-04-04T23:09:05.808Z,100637.47
2023-04-04T23:11:34.728Z,100628.69
2023-04-04T23:14:02.391Z,100631.31
2023-04-04T23:16:30.818Z,100627.81
2023-04-04T23:18:58.307Z,100626.06
2023-04-04T23:21:25.893Z,100631.31
2023-04-04T23:23:53.383Z,100632.22
2023-04-04T23:26:21.016Z,100635.72
2023-04-04T23:28:50.879Z,100633.09
2023-04-04T23:31:18.410Z,100619.94
2023-04-04T23:33:45.892Z,100633.97
2023-04-04T23:36:15.234Z,100619.94
2023-04-04T23:38:42.761Z,100615.53
2023-04-04T23:41:10.421Z,100611.19
2023-04-04T23:43:38.584Z,100617.31
2023-04-04T23:46:07.427Z,100609.41
2023-04-04T23:48:35.046Z,100612.03
2023-04-04T23:51:04.165Z,100601.53
2023-04-04T23:53:31.707Z,100605.03
2023-04-04T23:55:59.213Z,100604.16
2023-04-04T23:58:26.641Z,100601.53
